Time;durP1;ratioP1;P1;durP2;ratioP2;P2;SDS_P1;SDS_P2;PMS_P1;PMS_P2;Temp;Humidity;BMP_temperature;BMP_pressure;BME280_temperature;BME280_humidity;BME280_pressure;Samples;Min_cycle;Max_cycle;Signal;HPM_P1;HPM_P2
2023/06/21 00:00:21;;;;;;;10.43;6.03;;;;;;;19.09;70.90;99626.28;1807268;78;21001;-63
2023/06/21 00:02:50;;;;;;;6.47;5.90;;;;;;;19.08;70.99;99628.58;1791225;78;21033;-63
2023/06/21 00:05:17;;;;;;;9.40;6.08;;;;;;;19.08;71.06;99627.26;1814977;78;21069;-62
2023/06/21 00:07:47;;;;;;;6.25;5.37;;;;;;;19.07;70.98;99623.75;1811502;78;21571;-62
2023/06/21 00:10:13;;;;;;;9.58;5.75;;;;;;;19.05;71.03;99622.23;1815811;78;21453;-63
2023/06/21 00:12:40;;;;;;;7.25;6.10;;;;;;;19.08;71.11;99621.97;1815380;77;20977;-62
2023/06/21 00:15:08;;;;;;;10.38;5.90;;;;;;;19.09;71.04;99618.34;1816639;77;20951;-63
2023/06/21 00:17:34;;;;;;;6.37;5.65;;;;;;;19.14;71.06;99616.14;1812488;78;21036;-63
2023/06/21 00:20:00;;;;;;;7.85;5.65;;;;;;;19.17;71.11;99619.86;1816015;77;20996;-62
2023/06/21 00:22:29;;;;;;;6.97;5.53;;;;;;;19.21;71.18;99617.29;1815978;78;21888;-62
2023/06/21 00:24:57;;;;;;;6.95;5.87;;;;;;;19.26;71.26;99617.74;1793379;79;20997;-62
2023/06/21 00:27:23;;;;;;;9.10;5.70;;;;;;;19.30;71.31;99620.50;1813845;78;20986;-62
2023/06/21 00:29:49;;;;;;;6.97;5.40;;;;;;;19.30;71.46;99619.17;1815441;78;21176;-63
2023/06/21 00:32:24;;;;;;;7.83;6.17;;;;;;;19.27;71.60;99618.58;1815527;77;21017;-62
2023/06/21 00:34:47;;;;;;;6.28;5.67;;;;;;;19.23;71.94;99615.36;1811811;78;21017;-63
2023/06/21 00:37:14;;;;;;;9.95;5.80;;;;;;;19.15;71.87;99603.26;1817624;78;20950;-63
2023/06/21 00:39:41;;;;;;;6.50;5.40;;;;;;;18.96;71.78;99596.89;1818086;77;21314;-62
2023/06/21 00:42:11;;;;;;;6.37;5.47;;;;;;;18.79;71.98;99588.19;1812924;78;20979;-62
2023/06/21 00:44:37;;;;;;;8.35;6.03;;;;;;;18.69;72.80;99592.55;1816056;77;20931;-62
2023/06/21 00:47:04;;;;;;;8.48;6.00;;;;;;;18.58;73.16;99587.31;1816256;78;21057;-61
2023/06/21 00:49:31;;;;;;;6.72;6.03;;;;;;;18.54;73.20;99591.53;1816508;78;21023;-62
2023/06/21 00:51:57;;;;;;;8.55;6.10;;;;;;;18.58;73.38;99585.98;1809855;78;20996;-63
2023/06/21 00:54:27;;;;;;;6.40;5.80;;;;;;;18.63;73.74;99585.13;1801729;79;20943;-63
2023/06/21 00:56:56;;;;;;;10.50;6.20;;;;;;;18.66;73.59;99580.91;1781646;79;21042;-62
2023/06/21 00:59:27;;;;;;;7.80;6.12;;;;;;;18.65;73.52;99578.75;1799244;79;20942;-63
2023/06/21 01:02:00;;;;;;;6.90;5.47;;;;;;;18.68;73.65;99572.34;1756696;81;21994;-62
2023/06/21 01:04:29;;;;;;;6.08;5.37;;;;;;;18.73;73.51;99567.51;1755994;80;20970;-63
2023/06/21 01:07:11;;;;;;;7.28;5.85;;;;;;;18.78;73.43;99574.13;1723781;82;21504;-63
2023/06/21 01:10:02;;;;;;;7.30;5.87;;;;;;;18.85;73.26;99574.47;1755677;80;21460;-63
2023/06/21 01:12:48;;;;;;;6.25;5.65;;;;;;;18.95;73.27;99578.00;1728376;81;21030;-63
2023/06/21 01:15:21;;;;;;;6.62;5.45;;;;;;;19.00;73.14;99573.16;1755872;80;21076;-63
2023/06/21 01:17:58;;;;;;;7.67;5.40;;;;;;;19.04;73.18;99578.19;1722270;83;20974;-62
2023/06/21 01:20:25;;;;;;;6.12;5.53;;;;;;;19.06;73.15;99568.33;1721936;82;21540;-63
2023/06/21 01:23:01;;;;;;;9.00;5.42;;;;;;;19.08;73.15;99569.04;1797078;79;21500;-63
2023/06/21 01:25:43;;;;;;;5.62;5.12;;;;;;;19.09;73.00;99564.09;1748329;80;20952;-63
2023/06/21 01:28:22;;;;;;;5.67;5.08;;;;;;;19.11;72.98;99564.80;1745672;80;21041;-63
2023/06/21 01:30:49;;;;;;;6.50;5.80;;;;;;;19.13;72.99;99560.20;1724464;80;20970;-63
2023/06/21 01:33:17;;;;;;;;;;;;;;;19.15;72.94;99559.59;1749258;80;21019;-64
2023/06/21 01:35:45;;;;;;;5.95;5.35;;;;;;;19.17;72.88;99558.98;1748169;80;20197;-63
2023/06/21 01:38:12;;;;;;;7.05;5.33;;;;;;;19.18;72.93;99556.19;1744790;80;21015;-62
2023/06/21 01:40:38;;;;;;;5.95;5.33;;;;;;;19.20;72.86;99549.45;1748982;80;20992;-62
2023/06/21 01:43:06;;;;;;;5.97;5.37;;;;;;;19.20;73.07;99545.48;1748735;80;21011;-63
2023/06/21 01:45:32;;;;;;;7.60;5.83;;;;;;;19.26;72.74;99545.44;1748249;80;21011;-62
2023/06/21 01:48:02;;;;;;;6.85;5.45;;;;;;;19.25;72.61;99543.28;1749357;80;20978;-63
2023/06/21 01:50:29;;;;;;;10.20;5.05;;;;;;;19.28;72.61;99554.92;1748219;80;21040;-63
2023/06/21 01:52:57;;;;;;;5.87;5.30;;;;;;;19.30;72.57;99553.00;1744623;80;20945;-61
2023/06/21 01:55:26;;;;;;;6.72;5.80;;;;;;;19.31;72.54;99545.89;1761242;80;21003;-62
2023/06/21 01:57:53;;;;;;;7.03;5.78;;;;;;;19.30;72.73;99551.67;1761719;80;21005;-63
2023/06/21 02:00:21;;;;;;;5.92;5.42;;;;;;;19.30;72.73;99558.29;1760814;80;20996;-62
2023/06/21 02:03:01;;;;;;;6.80;6.20;;;;;;;19.30;72.71;99550.35;1791122;78;22302;-63
2023/06/21 02:05:28;;;;;;;6.92;5.25;;;;;;;19.29;72.81;99548.66;1809109;78;21105;-63
2023/06/21 02:07:56;;;;;;;7.05;5.85;;;;;;;19.28;72.91;99552.28;1810018;78;21017;-63
2023/06/21 02:10:26;;;;;;;6.72;5.62;;;;;;;19.25;72.95;99549.91;1811716;77;21647;-63
2023/06/21 02:12:54;;;;;;;6.20;5.60;;;;;;;19.24;72.98;99556.17;1744862;80;20959;-62
2023/06/21 02:15:20;;;;;;;;;;;;;;;19.23;73.03;99550.52;1815133;78;21032;-63
2023/06/21 02:17:50;;;;;;;6.87;5.40;;;;;;;19.25;73.27;99559.17;1813422;77;20194;-63
2023/06/21 02:20:19;;;;;;;7.90;6.42;;;;;;;19.24;73.23;99561.47;1812595;77;21024;-63
2023/06/21 02:22:47;;;;;;;6.37;5.78;;;;;;;19.22;73.29;99560.76;1812604;78;20998;-62
2023/06/21 02:25:16;;;;;;;6.78;6.15;;;;;;;19.21;73.45;99567.00;1806786;77;21057;-63
2023/06/21 02:27:44;;;;;;;6.78;6.03;;;;;;;19.20;73.54;99567.98;1810413;77;20994;-63
2023/06/21 02:30:12;;;;;;;7.00;6.17;;;;;;;19.20;73.59;99560.88;1811413;77;20990;-63
2023/06/21 02:32:40;;;;;;;6.92;6.20;;;;;;;19.20;73.66;99570.62;1804176;78;21017;-63
2023/06/21 02:35:12;;;;;;;12.90;6.70;;;;;;;19.20;73.55;99569.30;1809410;78;21520;-63
2023/06/21 02:37:40;;;;;;;6.85;6.03;;;;;;;19.20;73.58;99575.92;1809646;78;21018;-63
2023/06/21 02:40:10;;;;;;;7.55;5.90;;;;;;;19.20;73.72;99573.27;1791292;79;21008;-63
2023/06/21 02:42:41;;;;;;;8.33;6.10;;;;;;;19.20;73.72;99573.27;1802287;78;21041;-63
2023/06/21 02:45:10;;;;;;;6.90;6.20;;;;;;;19.20;73.84;99574.11;1810419;77;20989;-62
2023/06/21 02:47:37;;;;;;;6.87;6.12;;;;;;;19.19;73.85;99566.31;1811099;78;20998;-63
2023/06/21 02:50:05;;;;;;;6.97;6.28;;;;;;;19.17;73.83;99569.57;1810981;78;21048;-63
2023/06/21 02:52:32;;;;;;;6.78;6.00;;;;;;;19.15;74.09;99559.59;1810533;77;20994;-63
2023/06/21 02:54:58;;;;;;;8.40;6.08;;;;;;;19.14;74.20;99568.02;1818015;78;21045;-62
2023/06/21 02:57:25;;;;;;;6.95;6.25;;;;;;;19.09;74.38;99565.41;1815977;78;21022;-63
2023/06/21 02:59:59;;;;;;;6.83;6.15;;;;;;;19.14;74.39;99565.86;1816156;78;20915;-63
2023/06/21 03:02:33;;;;;;;7.03;5.65;;;;;;;19.15;74.25;99562.23;1812754;78;20985;-63
2023/06/21 03:04:55;;;;;;;8.00;6.42;;;;;;;19.16;74.32;99562.61;1810734;77;21029;-64
2023/06/21 03:07:23;;;;;;;6.92;5.75;;;;;;;19.16;74.62;99563.94;1816350;78;20973;-62
2023/06/21 03:09:52;;;;;;;6.65;6.00;;;;;;;19.13;74.67;99559.73;1813107;78;21468;-63
2023/06/21 03:12:19;;;;;;;6.50;5.85;;;;;;;19.13;75.05;99564.17;1813862;78;20923;-63
2023/06/21 03:14:50;;;;;;;8.10;5.75;;;;;;;19.12;75.18;99555.39;1815714;78;21981;-63
2023/06/21 03:17:16;;;;;;;7.55;6.20;;;;;;;19.11;75.17;99555.55;1816835;78;21532;-63
2023/06/21 03:19:54;;;;;;;;;;;;;;;;;;;;;
2023/06/21 03:22:16;;;;;;;8.08;6.12;;;;;;;19.12;75.51;99549.27;1808850;78;21021;-62
2023/06/21 03:24:46;;;;;;;8.35;6.17;;;;;;;19.18;75.26;99548.73;1816559;78;21057;-62
2023/06/21 03:27:13;;;;;;;7.53;6.12;;;;;;;19.21;75.12;99547.15;1817383;77;20970;-62
2023/06/21 03:29:41;;;;;;;6.67;5.97;;;;;;;19.26;75.24;99548.92;1816940;78;21080;-62
2023/06/21 03:32:07;;;;;;;6.47;5.87;;;;;;;19.29;75.22;99548.66;1813297;78;20985;-62
2023/06/21 03:34:33;;;;;;;6.50;5.65;;;;;;;19.30;75.23;99542.41;1813048;78;21005;-63
2023/06/21 03:37:00;;;;;;;6.42;5.83;;;;;;;19.32;75.29;99545.73;1815602;77;21475;-62
2023/06/21 03:39:26;;;;;;;6.85;5.53;;;;;;;19.37;75.38;99546.19;1810927;78;21002;-62
2023/06/21 03:41:55;;;;;;;7.78;5.87;;;;;;;19.43;75.47;99542.16;1813889;78;20998;-62
2023/06/21 03:44:25;;;;;;;6.42;5.80;;;;;;;19.48;75.58;99547.07;1795749;78;21018;-63
2023/06/21 03:46:52;;;;;;;7.28;6.35;;;;;;;19.53;75.52;99547.52;1815160;78;20990;-62
2023/06/21 03:49:20;;;;;;;7.25;5.22;;;;;;;19.55;75.55;99549.52;1814181;78;21050;-64
2023/06/21 03:51:46;;;;;;;9.28;5.67;;;;;;;19.58;75.51;99540.02;1811066;78;20919;-62
2023/06/21 03:54:12;;;;;;;7.97;5.93;;;;;;;19.56;75.55;99540.13;1815853;77;21032;-63
2023/06/21 03:56:39;;;;;;;6.40;5.35;;;;;;;19.57;75.68;99535.66;1820624;77;21778;-63
2023/06/21 03:59:05;;;;;;;8.15;5.90;;;;;;;19.61;75.70;99529.98;1820940;77;20937;-63
2023/06/21 04:01:33;;;;;;;6.90;5.60;;;;;;;19.70;75.68;99540.77;1820672;77;21521;-63
2023/06/21 04:03:59;;;;;;;;;;;;;;;19.78;75.67;99532.49;1822201;77;20966;-63
2023/06/21 04:06:25;;;;;;;9.50;5.73;;;;;;;19.87;75.74;99535.64;1822488;77;20131;-61
2023/06/21 04:08:52;;;;;;;8.00;6.20;;;;;;;20.01;75.41;99532.25;1819959;77;21031;-62
2023/06/21 04:11:18;;;;;;;8.93;6.20;;;;;;;20.09;75.38;99533.73;1817884;77;20989;-62
2023/06/21 04:13:45;;;;;;;9.05;5.83;;;;;;;20.14;75.21;99540.79;1816938;77;21026;-63
2023/06/21 04:16:11;;;;;;;6.47;5.72;;;;;;;20.11;75.36;99539.73;1821610;77;21060;-63
2023/06/21 04:18:37;;;;;;;7.35;6.08;;;;;;;20.14;75.36;99542.11;1820266;77;20942;-62
2023/06/21 04:21:03;;;;;;;7.17;6.03;;;;;;;20.19;75.45;99541.19;1817112;77;21032;-62
2023/06/21 04:23:29;;;;;;;7.10;6.35;;;;;;;20.22;75.34;99535.63;1820903;77;20954;-63
2023/06/21 04:25:56;;;;;;;7.33;5.83;;;;;;;20.26;75.33;99538.34;1821707;77;21579;-63
2023/06/21 04:28:25;;;;;;;8.65;6.20;;;;;;;20.34;75.34;99542.95;1818850;77;21488;-63
2023/06/21 04:30:55;;;;;;;6.97;6.28;;;;;;;20.43;75.28;99539.95;1821741;77;20966;-63
2023/06/21 04:33:22;;;;;;;6.30;5.70;;;;;;;20.52;75.21;99541.27;1819334;77;21025;-63
2023/06/21 04:35:48;;;;;;;;;;;;;;;20.60;74.97;99540.59;1826050;77;20973;-63
2023/06/21 04:38:14;;;;;;;8.53;6.03;;;;;;;20.72;74.86;99534.15;1818315;77;20192;-63
2023/06/21 04:40:41;;;;;;;6.60;5.97;;;;;;;20.72;74.86;99534.15;1821519;77;21402;-63
2023/06/21 04:43:08;;;;;;;7.92;5.45;;;;;;;20.87;74.85;99536.39;1820114;76;21579;-62
2023/06/21 04:45:36;;;;;;;8.73;6.10;;;;;;;20.97;74.73;99534.52;1820883;77;21062;-63
2023/06/21 04:48:04;;;;;;;6.45;5.85;;;;;;;21.12;74.66;99529.13;1818498;77;21052;-63
2023/06/21 04:50:33;;;;;;;6.95;5.67;;;;;;;21.24;74.48;99529.27;1821834;77;20982;-63
2023/06/21 04:52:59;;;;;;;7.85;6.20;;;;;;;21.35;74.28;99519.46;1815261;77;21539;-63
2023/06/21 04:55:28;;;;;;;7.72;5.62;;;;;;;21.43;74.18;99518.27;1812641;78;20931;-63
2023/06/21 04:57:56;;;;;;;7.75;5.90;;;;;;;21.48;73.90;99521.30;1810872;78;20958;-62
2023/06/21 05:00:22;;;;;;;7.03;6.22;;;;;;;21.49;73.56;99521.66;1809616;78;21061;-63
2023/06/21 05:02:51;;;;;;;8.10;6.62;;;;;;;21.53;73.51;99525.68;1810522;77;21546;-62
2023/06/21 05:05:19;;;;;;;6.70;5.50;;;;;;;21.58;73.40;99519.44;1807536;77;21133;-63
2023/06/21 05:07:45;;;;;;;6.53;5.92;;;;;;;21.64;73.41;99514.85;1812156;78;21101;-63
2023/06/21 05:10:11;;;;;;;10.85;6.17;;;;;;;21.68;73.19;99516.25;1813543;77;20998;-63
2023/06/21 05:12:38;;;;;;;7.55;6.10;;;;;;;21.74;73.32;99519.30;1809538;77;21061;-63
2023/06/21 05:15:06;;;;;;;7.45;5.97;;;;;;;21.81;72.97;99520.36;1814920;77;21002;-62
2023/06/21 05:17:42;;;;;;;8.85;6.30;;;;;;;21.85;73.03;99516.43;1810612;78;21034;-64
2023/06/21 05:20:12;;;;;;;10.25;6.45;;;;;;;21.94;72.86;99515.52;1801658;78;21084;-66
2023/06/21 05:22:36;;;;;;;7.85;6.37;;;;;;;22.02;72.63;99523.58;1809776;78;21081;-63
2023/06/21 05:25:04;;;;;;;10.47;6.23;;;;;;;22.12;72.56;99524.36;1795723;77;21010;-63
2023/06/21 05:27:30;;;;;;;12.05;6.67;;;;;;;22.22;72.41;99522.14;1812117;77;21010;-65
2023/06/21 05:29:57;;;;;;;12.10;6.50;;;;;;;22.29;71.96;99517.87;1807838;78;21017;-63
2023/06/21 05:32:25;;;;;;;7.35;6.62;;;;;;;22.31;71.85;99514.57;1807184;77;21045;-64
2023/06/21 05:34:55;;;;;;;8.63;6.67;;;;;;;22.35;71.57;99510.63;1811045;78;21476;-61
2023/06/21 05:37:21;;;;;;;7.60;6.37;;;;;;;22.35;71.35;99513.30;1809997;78;21508;-62
2023/06/21 05:39:48;;;;;;;10.65;6.22;;;;;;;22.36;71.33;99509.63;1805346;78;21305;-62
2023/06/21 05:42:18;;;;;;;8.80;7.00;;;;;;;22.38;71.31;99509.00;1811300;78;21125;-62
2023/06/21 05:44:44;;;;;;;11.03;6.40;;;;;;;22.40;70.91;99507.49;1810291;77;21045;-61
2023/06/21 05:47:11;;;;;;;10.33;7.33;;;;;;;22.47;71.16;99504.08;1809672;78;20951;-61
2023/06/21 05:49:40;;;;;;;20.77;8.05;;;;;;;22.61;70.88;99496.03;1807893;78;21343;-61
2023/06/21 05:52:09;;;;;;;8.05;6.83;;;;;;;22.78;70.85;99496.98;1789597;78;21041;-63
2023/06/21 05:54:37;;;;;;;8.95;7.37;;;;;;;22.99;70.60;99490.83;1812798;78;21132;-62
2023/06/21 05:57:05;;;;;;;13.43;7.08;;;;;;;23.14;70.02;99495.56;1813285;77;21018;-63
2023/06/21 05:59:32;;;;;;;16.97;7.45;;;;;;;23.28;69.79;99494.96;1815978;78;20957;-63
2023/06/21 06:01:58;;;;;;;10.53;7.20;;;;;;;23.49;69.30;99500.36;1814545;78;20965;-63
2023/06/21 06:04:24;;;;;;;9.65;6.78;;;;;;;23.63;68.91;99498.41;1814434;78;20922;-63
2023/06/21 06:06:50;;;;;;;17.87;7.93;;;;;;;23.83;69.18;99491.00;1814730;78;20938;-62
2023/06/21 06:09:17;;;;;;;16.20;7.60;;;;;;;24.04;68.16;99490.55;1807382;77;21468;-62
2023/06/21 06:11:45;;;;;;;9.38;7.25;;;;;;;24.19;67.87;99496.05;1811024;77;21045;-63
2023/06/21 06:14:11;;;;;;;11.30;7.70;;;;;;;24.41;67.72;99490.56;1808633;77;21054;-62
2023/06/21 06:16:45;;;;;;;8.30;7.47;;;;;;;24.63;66.95;99493.09;1813410;79;20946;-62
2023/06/21 06:19:10;;;;;;;11.90;8.10;;;;;;;24.77;65.78;99497.23;1810457;77;21025;-62
2023/06/21 06:21:36;;;;;;;15.28;8.50;;;;;;;25.03;66.58;99489.50;1810645;79;20966;-63
2023/06/21 06:24:04;;;;;;;11.60;7.83;;;;;;;25.38;65.99;99486.08;1808495;78;21512;-63
2023/06/21 06:26:32;;;;;;;14.55;8.08;;;;;;;25.60;64.91;99481.30;1810119;78;20957;-62
2023/06/21 06:28:58;;;;;;;11.03;7.55;;;;;;;25.66;64.56;99486.44;1808855;79;21069;-62
2023/06/21 06:31:26;;;;;;;11.70;7.63;;;;;;;25.71;64.59;99484.56;1808511;78;20993;-62
2023/06/21 06:33:53;;;;;;;13.80;8.30;;;;;;;25.92;64.54;99490.16;1812940;79;21496;-63
2023/06/21 06:36:24;;;;;;;13.18;8.30;;;;;;;26.20;63.80;99494.98;1811978;78;20957;-63
2023/06/21 06:38:49;;;;;;;9.88;7.62;;;;;;;26.37;63.28;99493.84;1811452;77;22414;-63
2023/06/21 06:41:17;;;;;;;12.30;8.08;;;;;;;26.43;61.39;99474.88;1806926;77;20991;-62
2023/06/21 06:43:44;;;;;;;12.03;7.97;;;;;;;26.63;62.58;99473.38;1810254;78;21011;-62
2023/06/21 06:46:10;;;;;;;15.28;8.63;;;;;;;26.94;62.26;99470.57;1815110;77;21013;-62
2023/06/21 06:48:37;;;;;;;8.80;7.92;;;;;;;27.27;62.08;99466.18;1814310;79;21072;-63
2023/06/21 06:51:03;;;;;;;13.25;8.35;;;;;;;27.64;60.88;99469.71;1812613;77;20918;-63
2023/06/21 06:53:30;;;;;;;;;;;;;;;27.96;61.11;99463.60;1822429;77;21521;-62
2023/06/21 06:55:59;;;;;;;17.02;8.78;;;;;;;28.28;58.24;99455.52;1815483;78;20209;-62
2023/06/21 06:58:28;;;;;;;9.98;8.35;;;;;;;28.41;59.62;99446.76;1822427;78;21542;-63
2023/06/21 07:00:55;;;;;;;17.35;8.60;;;;;;;28.52;59.00;99450.28;1821704;77;20941;-63
2023/06/21 07:03:21;;;;;;;14.25;7.80;;;;;;;28.74;58.44;99453.22;1816576;78;21124;-63
2023/06/21 07:05:48;;;;;;;13.05;7.80;;;;;;;29.17;59.07;99451.73;1812900;77;20994;-63
2023/06/21 07:08:17;;;;;;;11.85;8.55;;;;;;;29.87;58.56;99443.50;1726477;80;22180;-64
2023/06/21 07:10:44;;;;;;;11.15;7.67;;;;;;;30.62;57.32;99447.39;1776076;80;20946;-63
2023/06/21 07:13:10;;;;;;;12.55;7.30;;;;;;;31.44;57.34;99438.67;1751582;80;20950;-64
2023/06/21 07:15:37;;;;;;;19.48;7.17;;;;;;;31.79;55.88;99436.94;1743549;80;21045;-64
2023/06/21 07:18:04;;;;;;;8.38;6.53;;;;;;;32.45;55.72;99436.13;1747579;82;21086;-64
2023/06/21 07:20:31;;;;;;;12.20;7.20;;;;;;;32.99;54.50;99435.91;1776702;79;21029;-64
2023/06/21 07:22:57;;;;;;;8.05;6.60;;;;;;;33.65;54.01;99433.77;1770773;79;21001;-66
2023/06/21 07:25:24;;;;;;;11.80;7.20;;;;;;;34.35;52.64;99435.01;1779871;79;21008;-66
2023/06/21 07:27:50;;;;;;;11.43;7.08;;;;;;;35.11;51.75;99424.27;1777522;80;21013;-66
2023/06/21 07:30:17;;;;;;;8.08;6.70;;;;;;;35.73;50.77;99427.09;1752205;80;21013;-65
2023/06/21 07:32:46;;;;;;;20.48;6.62;;;;;;;36.46;49.42;99421.79;1749660;81;21037;-65
2023/06/21 07:35:14;;;;;;;10.20;6.62;;;;;;;36.86;48.43;99422.09;1781569;80;20969;-65
2023/06/21 07:37:44;;;;;;;7.12;6.42;;;;;;;37.33;47.93;99421.60;1752603;80;21010;-65
2023/06/21 07:40:13;;;;;;;16.67;6.60;;;;;;;37.76;46.74;99416.64;1739575;80;20954;-65
2023/06/21 07:42:39;;;;;;;15.23;6.40;;;;;;;38.59;45.69;99426.30;1743788;81;21005;-64
2023/06/21 07:45:07;;;;;;;8.78;6.03;;;;;;;39.52;44.81;99425.62;1782476;80;20931;-64
2023/06/21 07:47:33;;;;;;;12.73;6.95;;;;;;;39.96;42.60;99416.41;1755139;80;21013;-65
2023/06/21 07:50:04;;;;;;;13.13;6.47;;;;;;;40.57;40.53;99414.17;1749514;81;21057;-65
2023/06/21 07:52:29;;;;;;;21.48;6.83;;;;;;;39.60;39.41;99411.44;1780287;80;20982;-65
2023/06/21 07:54:55;;;;;;;10.38;6.87;;;;;;;39.01;38.88;99425.45;1742839;81;21002;-64
2023/06/21 07:57:22;;;;;;;50.83;9.08;;;;;;;38.90;38.00;99417.20;1772403;80;20990;-64
2023/06/21 07:59:49;;;;;;;11.40;6.10;;;;;;;38.47;36.72;99424.59;1745511;80;21025;-65
2023/06/21 08:02:17;;;;;;;12.75;6.90;;;;;;;37.38;36.14;99420.30;1748884;80;21604;-64
2023/06/21 08:04:46;;;;;;;12.10;6.80;;;;;;;36.73;35.77;99420.03;1746445;81;21054;-65
2023/06/21 08:07:14;;;;;;;9.73;6.90;;;;;;;36.95;36.24;99424.68;1773171;80;20961;-65
2023/06/21 08:09:41;;;;;;;17.52;6.60;;;;;;;37.77;36.11;99427.81;1753747;80;21065;-65
2023/06/21 08:12:08;;;;;;;10.60;6.72;;;;;;;38.66;36.45;99424.17;1742038;81;20963;-65
2023/06/21 08:14:34;;;;;;;14.47;7.28;;;;;;;40.01;33.97;99429.27;1773897;80;20970;-65
2023/06/21 08:17:00;;;;;;;15.72;7.35;;;;;;;40.01;33.97;99429.27;1747529;80;21446;-65
2023/06/21 08:19:27;;;;;;;27.32;8.30;;;;;;;40.33;33.58;99435.00;1748371;80;20982;-65
2023/06/21 08:21:53;;;;;;;12.58;6.60;;;;;;;40.55;32.35;99438.25;1775933;80;21120;-65
2023/06/21 08:24:19;;;;;;;8.60;6.33;;;;;;;40.49;32.81;99440.73;1775356;80;21477;-65
2023/06/21 08:26:46;;;;;;;10.10;6.65;;;;;;;40.67;32.79;99433.34;1733264;81;21615;-65
2023/06/21 08:29:12;;;;;;;9.35;6.40;;;;;;;41.31;32.33;99436.37;1772373;80;20993;-65
2023/06/21 08:31:38;;;;;;;13.15;7.12;;;;;;;42.18;32.08;99433.89;1749434;81;21427;-65
2023/06/21 08:34:05;;;;;;;10.10;6.60;;;;;;;42.19;31.41;99437.45;1774758;80;20989;-65
2023/06/21 08:36:31;;;;;;;15.10;7.22;;;;;;;41.54;31.04;99434.92;1742209;81;20993;-65
2023/06/21 08:38:57;;;;;;;9.83;6.70;;;;;;;40.45;30.43;99438.29;1771051;80;21336;-65
2023/06/21 08:41:26;;;;;;;15.40;7.30;;;;;;;39.10;30.19;99440.22;1748188;81;21446;-65
2023/06/21 08:43:53;;;;;;;16.12;7.08;;;;;;;38.14;30.63;99437.14;1776033;80;21030;-65
2023/06/21 08:46:22;;;;;;;10.32;6.97;;;;;;;37.50;30.52;99436.52;1744860;80;21556;-64
2023/06/21 08:48:54;;;;;;;10.00;7.00;;;;;;;36.97;30.75;99436.11;1774833;80;21010;-65
2023/06/21 08:51:22;;;;;;;10.48;6.90;;;;;;;36.69;30.87;99433.87;1774986;80;20993;-66
2023/06/21 08:53:56;;;;;;;8.65;7.83;;;;;;;36.43;30.98;99438.60;1745043;80;21063;-66
2023/06/21 08:56:24;;;;;;;9.73;7.03;;;;;;;36.18;30.70;99443.92;1809714;77;20965;-64
2023/06/21 08:59:06;;;;;;;8.78;7.25;;;;;;;35.36;30.59;99441.05;1811710;78;21002;-65
2023/06/21 09:02:01;;;;;;;8.73;6.60;;;;;;;34.88;30.88;99443.56;1806395;78;20998;-64
2023/06/21 09:04:30;;;;;;;10.98;7.20;;;;;;;34.11;30.92;99438.75;1808724;78;21586;-64
2023/06/21 09:06:57;;;;;;;8.33;7.42;;;;;;;33.47;31.38;99441.08;1809908;78;21078;-64
2023/06/21 09:09:26;;;;;;;16.02;6.80;;;;;;;33.17;31.50;99441.36;1809253;77;21002;-64
2023/06/21 09:11:54;;;;;;;7.47;6.65;;;;;;;33.27;31.96;99438.63;1811086;78;20994;-64
2023/06/21 09:14:21;;;;;;;8.33;7.33;;;;;;;33.96;32.77;99434.57;1814283;77;20986;-63
2023/06/21 09:16:48;;;;;;;11.05;6.85;;;;;;;36.15;31.88;99432.19;1810195;78;20986;-64
2023/06/21 09:19:15;;;;;;;7.45;6.67;;;;;;;37.85;32.02;99433.34;1810027;78;20982;-65
2023/06/21 09:21:44;;;;;;;7.05;6.35;;;;;;;39.25;30.98;99432.09;1810998;77;20935;-65
2023/06/21 09:24:12;;;;;;;6.30;5.70;;;;;;;42.07;30.61;99436.99;1811884;78;21508;-65
2023/06/21 09:26:44;;;;;;;7.83;5.83;;;;;;;42.07;30.61;99436.99;1810871;77;20935;-65
2023/06/21 09:29:10;;;;;;;8.23;5.20;;;;;;;43.21;28.72;99441.86;1805789;77;21013;-65
2023/06/21 09:31:36;;;;;;;10.70;4.80;;;;;;;44.10;29.19;99438.36;1811869;77;21552;-66
2023/06/21 09:34:03;;;;;;;6.67;5.12;;;;;;;44.54;27.05;99437.04;1807547;78;21017;-65
2023/06/21 09:36:29;;;;;;;6.92;4.75;;;;;;;45.29;28.00;99432.22;1809313;78;21034;-65
2023/06/21 09:39:10;;;;;;;6.08;5.40;;;;;;;46.11;26.77;99431.13;1808237;78;20997;-66
2023/06/21 09:41:38;;;;;;;13.22;5.60;;;;;;;46.27;24.10;99456.36;1807621;77;21021;-65
2023/06/21 09:44:05;;;;;;;10.38;4.80;;;;;;;45.78;25.10;99430.56;1809511;78;21038;-64
2023/06/21 09:46:31;;;;;;;12.75;5.10;;;;;;;46.30;25.05;99419.91;1809367;78;21256;-65
2023/06/21 09:49:10;;;;;;;13.00;5.37;;;;;;;46.83;24.19;99430.03;1808607;77;21588;-65
2023/06/21 09:51:45;;;;;;;7.58;5.25;;;;;;;47.20;23.55;99432.00;1804059;78;20946;-65
2023/06/21 09:54:12;;;;;;;7.78;5.03;;;;;;;46.56;21.41;99438.52;1800667;78;21049;-64
2023/06/21 09:56:39;;;;;;;9.23;5.30;;;;;;;45.99;21.14;99439.99;1771306;79;21077;-64
2023/06/21 09:59:16;;;;;;;7.50;4.40;;;;;;;45.29;21.04;99434.98;1777939;79;21048;-64
2023/06/21 10:01:47;;;;;;;13.08;4.50;;;;;;;44.81;21.97;99424.41;1775779;79;21528;-64
2023/06/21 10:04:17;;;;;;;9.40;4.37;;;;;;;45.05;21.38;99430.52;1773703;79;21054;-64
2023/06/21 10:06:49;;;;;;;15.90;5.03;;;;;;;44.42;20.55;99424.32;1779387;79;21015;-64
2023/06/21 10:09:15;;;;;;;4.53;4.10;;;;;;;43.34;21.06;99427.39;1775915;79;21054;-65
2023/06/21 10:11:45;;;;;;;7.67;4.80;;;;;;;42.46;21.24;99429.53;1776450;79;21033;-65
2023/06/21 10:14:20;;;;;;;4.78;4.00;;;;;;;41.20;21.42;99430.13;1773973;79;21059;-64
2023/06/21 10:16:53;;;;;;;8.98;4.47;;;;;;;40.25;22.01;99427.64;1756670;80;21048;-63
2023/06/21 10:19:26;;;;;;;6.10;4.42;;;;;;;39.16;22.14;99422.80;1774591;79;21021;-64
2023/06/21 10:22:10;;;;;;;8.10;4.87;;;;;;;38.35;22.67;99421.23;1752274;80;21598;-64
2023/06/21 10:24:48;;;;;;;8.85;4.53;;;;;;;38.36;23.07;99425.59;1709953;82;21024;-64
2023/06/21 10:27:16;;;;;;;6.30;4.75;;;;;;;38.36;23.49;99418.77;1747109;80;20986;-63
2023/06/21 10:29:44;;;;;;;7.65;4.37;;;;;;;38.53;23.59;99428.18;1741170;80;21145;-64
2023/06/21 10:32:12;;;;;;;4.70;3.92;;;;;;;38.91;23.92;99427.06;1743900;80;21001;-63
2023/06/21 10:35:07;;;;;;;4.33;3.60;;;;;;;39.17;23.59;99429.88;1726186;81;21008;-65
2023/06/21 10:37:56;;;;;;;11.05;4.70;;;;;;;39.05;23.68;99423.84;1678983;83;21064;-64
2023/06/21 10:40:23;;;;;;;12.78;4.83;;;;;;;38.61;23.78;99428.23;1699903;83;21055;-64
2023/06/21 10:42:50;;;;;;;5.10;4.60;;;;;;;37.79;24.28;99407.13;1701009;83;21075;-64
2023/06/21 10:45:21;;;;;;;8.00;5.40;;;;;;;37.88;24.61;99428.73;1706072;82;21061;-64
2023/06/21 10:47:47;;;;;;;5.22;4.58;;;;;;;38.66;24.95;99436.45;1694786;83;21005;-63
2023/06/21 10:50:19;;;;;;;8.20;5.22;;;;;;;40.61;24.91;99409.77;1710536;82;21020;-64
2023/06/21 10:52:49;;;;;;;8.23;5.40;;;;;;;40.61;24.91;99409.77;1680885;83;20994;-65
2023/06/21 10:55:16;;;;;;;7.05;4.78;;;;;;;41.44;24.60;99438.50;1701913;81;21433;-64
2023/06/21 10:57:48;;;;;;;6.37;5.45;;;;;;;41.45;24.36;99440.12;1708489;83;21588;-65
2023/06/21 11:00:13;;;;;;;10.63;4.92;;;;;;;40.47;23.96;99433.34;1700812;83;21082;-64
2023/06/21 11:02:41;;;;;;;7.20;5.80;;;;;;;39.01;24.25;99441.83;1703983;83;21033;-64
2023/06/21 11:05:16;;;;;;;11.63;6.08;;;;;;;37.81;24.75;99440.37;1698426;83;21029;-64
2023/06/21 11:07:59;;;;;;;9.55;6.35;;;;;;;36.76;25.16;99407.02;1702260;80;21033;-63
2023/06/21 11:10:48;;;;;;;9.90;6.40;;;;;;;36.53;25.79;99445.59;1783032;80;20962;-65
2023/06/21 11:13:18;;;;;;;10.53;6.95;;;;;;;36.29;26.34;99434.86;1777375;80;21121;-62
2023/06/21 11:15:48;;;;;;;12.65;6.47;;;;;;;36.15;26.47;99424.03;1754429;80;20969;-62
2023/06/21 11:18:19;;;;;;;11.63;6.40;;;;;;;36.23;26.89;99422.27;1775422;80;20957;-62
2023/06/21 11:20:50;;;;;;;15.72;6.70;;;;;;;36.59;27.02;99429.63;1755234;80;21038;-62
2023/06/21 11:23:25;;;;;;;8.10;6.83;;;;;;;36.56;27.14;99431.50;1757460;80;20926;-62
2023/06/21 11:25:51;;;;;;;12.15;7.17;;;;;;;36.14;27.42;99429.19;1778642;79;21552;-62
2023/06/21 11:28:23;;;;;;;12.55;6.50;;;;;;;35.82;27.82;99420.22;1779577;80;21525;-62
2023/06/21 11:31:07;;;;;;;7.87;6.47;;;;;;;36.44;28.23;99421.20;1781243;80;21496;-62
2023/06/21 11:33:49;;;;;;;7.50;6.60;;;;;;;36.72;28.21;99422.48;1780600;80;20958;-63
2023/06/21 11:36:18;;;;;;;7.67;6.37;;;;;;;37.15;28.19;99420.88;1783094;80;21045;-64
2023/06/21 11:38:50;;;;;;;7.22;6.33;;;;;;;37.48;28.29;99420.45;1782045;80;20911;-64
2023/06/21 11:41:45;;;;;;;6.67;6.00;;;;;;;37.70;28.19;99422.28;1762812;80;20979;-64